sensor_id;sensor_type;location;lat;lon;timestamp;temperature;humidity
41256;DHT22;26989;45.524;10.938;2022-12-20T00:01:27;3.60;99.90
41256;DHT22;26989;45.524;10.938;2022-12-20T00:03:56;3.60;99.90
41256;DHT22;26989;45.524;10.938;2022-12-20T00:06:24;3.60;99.90
41256;DHT22;26989;45.524;10.938;2022-12-20T00:08:56;3.60;99.90
41256;DHT22;26989;45.524;10.938;2022-12-20T00:11:24;3.60;99.90
41256;DHT22;26989;45.524;10.938;2022-12-20T00:13:52;3.60;99.90
41256;DHT22;26989;45.524;10.938;2022-12-20T00:16:22;3.50;99.90
41256;DHT22;26989;45.524;10.938;2022-12-20T00:18:55;3.60;99.90
41256;DHT22;26989;45.524;10.938;2022-12-20T00:21:22;3.60;99.90
41256;DHT22;26989;45.524;10.938;2022-12-20T00:23:51;3.60;99.90
41256;DHT22;26989;45.524;10.938;2022-12-20T00:26:20;3.60;99.90
41256;DHT22;26989;45.524;10.938;2022-12-20T00:28:47;3.70;99.90
41256;DHT22;26989;45.524;10.938;2022-12-20T00:31:17;3.70;99.90
41256;DHT22;26989;45.524;10.938;2022-12-20T00:33:46;3.70;99.90
41256;DHT22;26989;45.524;10.938;2022-12-20T00:36:14;3.70;99.90
41256;DHT22;26989;45.524;10.938;2022-12-20T00:38:46;3.70;99.90
41256;DHT22;26989;45.524;10.938;2022-12-20T00:41:16;3.70;99.90
41256;DHT22;26989;45.524;10.938;2022-12-20T00:43:43;3.70;99.90
41256;DHT22;26989;45.524;10.938;2022-12-20T00:46:11;3.70;99.90
41256;DHT22;26989;45.524;10.938;2022-12-20T00:48:39;3.70;99.90
41256;DHT22;26989;45.524;10.938;2022-12-20T00:51:12;3.70;99.90
41256;DHT22;26989;45.524;10.938;2022-12-20T00:53:40;3.70;99.90
41256;DHT22;26989;45.524;10.938;2022-12-20T00:56:08;3.70;99.90
41256;DHT22;26989;45.524;10.938;2022-12-20T00:58:38;3.70;99.90
41256;DHT22;26989;45.524;10.938;2022-12-20T01:01:13;3.70;99.90
41256;DHT22;26989;45.524;10.938;2022-12-20T01:03:40;3.70;99.90
41256;DHT22;26989;45.524;10.938;2022-12-20T01:06:08;3.70;99.90
41256;DHT22;26989;45.524;10.938;2022-12-20T01:08:35;3.70;99.90
41256;DHT22;26989;45.524;10.938;2022-12-20T01:11:19;3.70;99.90
41256;DHT22;26989;45.524;10.938;2022-12-20T01:13:49;3.70;99.90
41256;DHT22;26989;45.524;10.938;2022-12-20T01:16:26;3.70;99.90
41256;DHT22;26989;45.524;10.938;2022-12-20T01:18:53;3.70;99.90
41256;DHT22;26989;45.524;10.938;2022-12-20T01:21:21;3.70;99.90
41256;DHT22;26989;45.524;10.938;2022-12-20T01:23:49;3.80;99.90
41256;DHT22;26989;45.524;10.938;2022-12-20T01:26:18;3.80;99.90
41256;DHT22;26989;45.524;10.938;2022-12-20T01:28:47;3.80;99.90
41256;DHT22;26989;45.524;10.938;2022-12-20T01:31:17;3.80;99.90
41256;DHT22;26989;45.524;10.938;2022-12-20T01:33:46;3.80;99.90
41256;DHT22;26989;45.524;10.938;2022-12-20T01:36:16;3.80;99.90
41256;DHT22;26989;45.524;10.938;2022-12-20T01:38:43;3.80;99.90
41256;DHT22;26989;45.524;10.938;2022-12-20T01:41:18;3.80;99.90
41256;DHT22;26989;45.524;10.938;2022-12-20T01:43:55;3.70;99.90
41256;DHT22;26989;45.524;10.938;2022-12-20T01:46:28;3.70;99.90
41256;DHT22;26989;45.524;10.938;2022-12-20T01:48:58;3.70;99.90
41256;DHT22;26989;45.524;10.938;2022-12-20T01:51:27;3.70;99.90
41256;DHT22;26989;45.524;10.938;2022-12-20T01:54:33;3.80;99.90
41256;DHT22;26989;45.524;10.938;2022-12-20T01:56:57;3.70;99.90
41256;DHT22;26989;45.524;10.938;2022-12-20T01:59:26;3.80;99.90
41256;DHT22;26989;45.524;10.938;2022-12-20T02:01:57;3.80;99.90
41256;DHT22;26989;45.524;10.938;2022-12-20T02:04:26;3.80;99.90
41256;DHT22;26989;45.524;10.938;2022-12-20T02:06:53;3.80;99.90
41256;DHT22;26989;45.524;10.938;2022-12-20T02:09:20;3.80;99.90
41256;DHT22;26989;45.524;10.938;2022-12-20T02:14:56;3.80;99.90
41256;DHT22;26989;45.524;10.938;2022-12-20T02:17:43;3.80;99.90
41256;DHT22;26989;45.524;10.938;2022-12-20T02:26:30;3.80;99.90
41256;DHT22;26989;45.524;10.938;2022-12-20T02:29:19;3.80;99.90
41256;DHT22;26989;45.524;10.938;2022-12-20T02:35:07;3.70;99.90
41256;DHT22;26989;45.524;10.938;2022-12-20T02:37:34;3.70;99.90
41256;DHT22;26989;45.524;10.938;2022-12-20T02:40:04;3.80;99.90
41256;DHT22;26989;45.524;10.938;2022-12-20T02:42:32;3.80;99.90
41256;DHT22;26989;45.524;10.938;2022-12-20T02:45:05;3.80;99.90
41256;DHT22;26989;45.524;10.938;2022-12-20T02:47:52;3.80;99.90
41256;DHT22;26989;45.524;10.938;2022-12-20T02:50:27;3.80;99.90
41256;DHT22;26989;45.524;10.938;2022-12-20T02:52:57;3.80;99.90
41256;DHT22;26989;45.524;10.938;2022-12-20T02:56:06;3.80;99.90
41256;DHT22;26989;45.524;10.938;2022-12-20T03:01:03;3.90;99.90
41256;DHT22;26989;45.524;10.938;2022-12-20T03:03:33;3.90;99.90
41256;DHT22;26989;45.524;10.938;2022-12-20T03:06:00;3.80;99.90
41256;DHT22;26989;45.524;10.938;2022-12-20T03:08:27;3.80;99.90
41256;DHT22;26989;45.524;10.938;2022-12-20T03:10:54;3.70;99.90
41256;DHT22;26989;45.524;10.938;2022-12-20T03:13:23;3.80;99.90
41256;DHT22;26989;45.524;10.938;2022-12-20T03:15:50;3.80;99.90
41256;DHT22;26989;45.524;10.938;2022-12-20T03:18:17;3.80;99.90
41256;DHT22;26989;45.524;10.938;2022-12-20T03:20:44;3.80;99.90
41256;DHT22;26989;45.524;10.938;2022-12-20T03:23:11;3.80;99.90
41256;DHT22;26989;45.524;10.938;2022-12-20T03:25:38;3.90;99.90
41256;DHT22;26989;45.524;10.938;2022-12-20T03:28:05;3.80;99.90
41256;DHT22;26989;45.524;10.938;2022-12-20T03:30:32;3.80;99.90
41256;DHT22;26989;45.524;10.938;2022-12-20T03:32:59;3.80;99.90
41256;DHT22;26989;45.524;10.938;2022-12-20T03:35:26;3.80;99.90
41256;DHT22;26989;45.524;10.938;2022-12-20T03:37:53;3.80;99.90
41256;DHT22;26989;45.524;10.938;2022-12-20T03:40:21;3.80;99.90
41256;DHT22;26989;45.524;10.938;2022-12-20T03:42:48;3.80;99.90
41256;DHT22;26989;45.524;10.938;2022-12-20T03:45:16;3.80;99.90
41256;DHT22;26989;45.524;10.938;2022-12-20T03:47:43;3.80;99.90
41256;DHT22;26989;45.524;10.938;2022-12-20T03:50:10;3.80;99.90
41256;DHT22;26989;45.524;10.938;2022-12-20T03:52:37;3.80;99.90
41256;DHT22;26989;45.524;10.938;2022-12-20T03:55:04;3.80;99.90
41256;DHT22;26989;45.524;10.938;2022-12-20T03:57:32;3.80;99.90
41256;DHT22;26989;45.524;10.938;2022-12-20T03:59:58;3.60;99.90
41256;DHT22;26989;45.524;10.938;2022-12-20T04:02:25;3.60;99.90
41256;DHT22;26989;45.524;10.938;2022-12-20T04:04:52;3.60;99.90
41256;DHT22;26989;45.524;10.938;2022-12-20T04:07:19;3.60;99.90
41256;DHT22;26989;45.524;10.938;2022-12-20T04:09:46;3.60;99.90
41256;DHT22;26989;45.524;10.938;2022-12-20T04:12:13;3.60;99.90
41256;DHT22;26989;45.524;10.938;2022-12-20T04:14:40;3.60;99.90
41256;DHT22;26989;45.524;10.938;2022-12-20T04:17:07;3.60;99.90
41256;DHT22;26989;45.524;10.938;2022-12-20T04:19:34;3.60;99.90
41256;DHT22;26989;45.524;10.938;2022-12-20T04:22:01;3.60;99.90
41256;DHT22;26989;45.524;10.938;2022-12-20T04:24:31;3.60;99.90
41256;DHT22;26989;45.524;10.938;2022-12-20T04:26:58;3.60;99.90
41256;DHT22;26989;45.524;10.938;2022-12-20T04:29:26;3.60;99.90
41256;DHT22;26989;45.524;10.938;2022-12-20T04:31:53;3.60;99.90
41256;DHT22;26989;45.524;10.938;2022-12-20T04:34:20;3.60;99.90
41256;DHT22;26989;45.524;10.938;2022-12-20T04:36:47;3.60;99.90
41256;DHT22;26989;45.524;10.938;2022-12-20T04:39:14;3.70;99.90
41256;DHT22;26989;45.524;10.938;2022-12-20T04:41:41;3.70;99.90
41256;DHT22;26989;45.524;10.938;2022-12-20T04:44:08;3.70;99.90
41256;DHT22;26989;45.524;10.938;2022-12-20T04:46:35;3.60;99.90
41256;DHT22;26989;45.524;10.938;2022-12-20T04:49:02;3.70;99.90
41256;DHT22;26989;45.524;10.938;2022-12-20T04:51:29;3.70;99.90
41256;DHT22;26989;45.524;10.938;2022-12-20T04:53:57;3.70;99.90
41256;DHT22;26989;45.524;10.938;2022-12-20T04:56:27;3.70;99.90
41256;DHT22;26989;45.524;10.938;2022-12-20T04:58:56;3.80;99.90
41256;DHT22;26989;45.524;10.938;2022-12-20T05:01:24;3.80;99.90
41256;DHT22;26989;45.524;10.938;2022-12-20T05:03:51;3.70;99.90
41256;DHT22;26989;45.524;10.938;2022-12-20T05:06:19;3.80;99.90
41256;DHT22;26989;45.524;10.938;2022-12-20T05:08:46;3.80;99.90
41256;DHT22;26989;45.524;10.938;2022-12-20T05:11:13;3.80;99.90
41256;DHT22;26989;45.524;10.938;2022-12-20T05:13:40;3.70;99.90
41256;DHT22;26989;45.524;10.938;2022-12-20T05:16:08;3.80;99.90
41256;DHT22;26989;45.524;10.938;2022-12-20T05:18:34;3.80;99.90
41256;DHT22;26989;45.524;10.938;2022-12-20T05:21:02;3.80;99.90
41256;DHT22;26989;45.524;10.938;2022-12-20T05:23:48;3.90;99.90
41256;DHT22;26989;45.524;10.938;2022-12-20T05:26:35;3.90;99.90
41256;DHT22;26989;45.524;10.938;2022-12-20T05:29:04;3.90;99.90
41256;DHT22;26989;45.524;10.938;2022-12-20T05:31:31;3.90;99.90
41256;DHT22;26989;45.524;10.938;2022-12-20T05:33:59;3.90;99.90
41256;DHT22;26989;45.524;10.938;2022-12-20T05:36:26;3.90;99.90
41256;DHT22;26989;45.524;10.938;2022-12-20T05:38:53;3.90;99.90
41256;DHT22;26989;45.524;10.938;2022-12-20T05:41:29;3.90;99.90
41256;DHT22;26989;45.524;10.938;2022-12-20T05:43:56;3.80;99.90
41256;DHT22;26989;45.524;10.938;2022-12-20T05:46:23;3.80;99.90
41256;DHT22;26989;45.524;10.938;2022-12-20T05:48:50;3.90;99.90
41256;DHT22;26989;45.524;10.938;2022-12-20T05:51:16;3.90;99.90
41256;DHT22;26989;45.524;10.938;2022-12-20T05:53:43;3.90;99.90
41256;DHT22;26989;45.524;10.938;2022-12-20T05:56:10;3.90;99.90
41256;DHT22;26989;45.524;10.938;2022-12-20T05:58:37;4.00;99.90
41256;DHT22;26989;45.524;10.938;2022-12-20T06:01:06;3.90;99.90
41256;DHT22;26989;45.524;10.938;2022-12-20T06:03:34;3.90;99.90
41256;DHT22;26989;45.524;10.938;2022-12-20T06:06:00;3.90;99.90
41256;DHT22;26989;45.524;10.938;2022-12-20T06:08:27;3.90;99.90
41256;DHT22;26989;45.524;10.938;2022-12-20T06:10:54;3.90;99.90
41256;DHT22;26989;45.524;10.938;2022-12-20T06:13:22;3.90;99.90
41256;DHT22;26989;45.524;10.938;2022-12-20T06:15:49;3.90;99.90
41256;DHT22;26989;45.524;10.938;2022-12-20T06:18:16;3.90;99.90
41256;DHT22;26989;45.524;10.938;2022-12-20T06:20:52;4.00;99.90
41256;DHT22;26989;45.524;10.938;2022-12-20T06:23:19;4.00;99.90
41256;DHT22;26989;45.524;10.938;2022-12-20T06:25:46;4.00;99.90
41256;DHT22;26989;45.524;10.938;2022-12-20T06:28:13;4.00;99.90
41256;DHT22;26989;45.524;10.938;2022-12-20T06:30:41;4.00;99.90
41256;DHT22;26989;45.524;10.938;2022-12-20T06:33:08;4.00;99.90
41256;DHT22;26989;45.524;10.938;2022-12-20T06:35:35;4.00;99.90
41256;DHT22;26989;45.524;10.938;2022-12-20T06:38:03;4.10;99.90
41256;DHT22;26989;45.524;10.938;2022-12-20T06:40:30;4.10;99.90
41256;DHT22;26989;45.524;10.938;2022-12-20T06:42:57;4.00;99.90
41256;DHT22;26989;45.524;10.938;2022-12-20T06:45:24;4.10;99.90
41256;DHT22;26989;45.524;10.938;2022-12-20T06:47:51;4.00;99.90
41256;DHT22;26989;45.524;10.938;2022-12-20T06:50:18;4.00;99.90
41256;DHT22;26989;45.524;10.938;2022-12-20T06:52:45;4.10;99.90
41256;DHT22;26989;45.524;10.938;2022-12-20T06:55:12;4.00;99.90
41256;DHT22;26989;45.524;10.938;2022-12-20T06:57:39;4.10;99.90
41256;DHT22;26989;45.524;10.938;2022-12-20T07:00:06;4.10;99.90
41256;DHT22;26989;45.524;10.938;2022-12-20T07:02:34;4.10;99.90
41256;DHT22;26989;45.524;10.938;2022-12-20T07:05:01;4.10;99.90
41256;DHT22;26989;45.524;10.938;2022-12-20T07:07:39;4.10;99.90
41256;DHT22;26989;45.524;10.938;2022-12-20T07:10:23;4.10;99.90
41256;DHT22;26989;45.524;10.938;2022-12-20T07:12:51;4.10;99.90
41256;DHT22;26989;45.524;10.938;2022-12-20T07:15:18;4.10;99.90
41256;DHT22;26989;45.524;10.938;2022-12-20T07:17:50;4.20;99.90
41256;DHT22;26989;45.524;10.938;2022-12-20T07:20:24;4.20;99.90
41256;DHT22;26989;45.524;10.938;2022-12-20T07:22:51;4.20;99.90
41256;DHT22;26989;45.524;10.938;2022-12-20T07:25:18;4.20;99.90
41256;DHT22;26989;45.524;10.938;2022-12-20T07:27:47;4.20;99.90
41256;DHT22;26989;45.524;10.938;2022-12-20T07:30:16;4.20;99.90
41256;DHT22;26989;45.524;10.938;2022-12-20T07:32:44;4.20;99.90
41256;DHT22;26989;45.524;10.938;2022-12-20T07:35:12;4.20;99.90
41256;DHT22;26989;45.524;10.938;2022-12-20T07:37:42;4.20;99.90
41256;DHT22;26989;45.524;10.938;2022-12-20T07:40:10;4.20;99.90
41256;DHT22;26989;45.524;10.938;2022-12-20T07:42:38;4.30;99.90
41256;DHT22;26989;45.524;10.938;2022-12-20T07:45:14;4.20;99.90
41256;DHT22;26989;45.524;10.938;2022-12-20T07:47:41;4.20;99.90
41256;DHT22;26989;45.524;10.938;2022-12-20T07:50:09;4.20;99.90
41256;DHT22;26989;45.524;10.938;2022-12-20T07:52:39;4.20;99.90
41256;DHT22;26989;45.524;10.938;2022-12-20T07:55:09;4.30;99.90
41256;DHT22;26989;45.524;10.938;2022-12-20T07:57:41;4.30;99.90
41256;DHT22;26989;45.524;10.938;2022-12-20T08:00:15;4.40;99.90
41256;DHT22;26989;45.524;10.938;2022-12-20T08:03:15;4.40;99.90
41256;DHT22;26989;45.524;10.938;2022-12-20T08:05:48;4.50;99.90
41256;DHT22;26989;45.524;10.938;2022-12-20T08:08:17;4.50;99.90
41256;DHT22;26989;45.524;10.938;2022-12-20T08:10:44;4.50;99.90
41256;DHT22;26989;45.524;10.938;2022-12-20T08:13:12;4.50;99.90
41256;DHT22;26989;45.524;10.938;2022-12-20T08:15:39;4.50;99.90
41256;DHT22;26989;45.524;10.938;2022-12-20T08:18:06;4.60;99.90
41256;DHT22;26989;45.524;10.938;2022-12-20T08:20:32;4.60;99.90
41256;DHT22;26989;45.524;10.938;2022-12-20T08:23:02;4.60;99.90
41256;DHT22;26989;45.524;10.938;2022-12-20T08:25:29;4.60;99.90
41256;DHT22;26989;45.524;10.938;2022-12-20T08:28:06;4.70;99.90
41256;DHT22;26989;45.524;10.938;2022-12-20T08:30:33;4.80;99.90
41256;DHT22;26989;45.524;10.938;2022-12-20T08:33:00;4.80;99.90
41256;DHT22;26989;45.524;10.938;2022-12-20T08:35:28;4.90;99.90
41256;DHT22;26989;45.524;10.938;2022-12-20T08:37:55;4.90;99.90
41256;DHT22;26989;45.524;10.938;2022-12-20T08:40:22;4.90;99.90
41256;DHT22;26989;45.524;10.938;2022-12-20T08:42:50;4.70;99.90
41256;DHT22;26989;45.524;10.938;2022-12-20T08:45:21;4.80;99.90
41256;DHT22;26989;45.524;10.938;2022-12-20T08:47:58;4.80;99.90
41256;DHT22;26989;45.524;10.938;2022-12-20T08:50:27;4.70;99.90
41256;DHT22;26989;45.524;10.938;2022-12-20T08:52:54;4.70;99.90
41256;DHT22;26989;45.524;10.938;2022-12-20T08:55:21;4.70;99.90
41256;DHT22;26989;45.524;10.938;2022-12-20T08:57:55;4.70;99.90
41256;DHT22;26989;45.524;10.938;2022-12-20T09:00:22;4.70;99.90
41256;DHT22;26989;45.524;10.938;2022-12-20T09:02:51;4.60;99.90
41256;DHT22;26989;45.524;10.938;2022-12-20T09:05:27;4.60;99.90
41256;DHT22;26989;45.524;10.938;2022-12-20T09:07:54;4.70;99.90
41256;DHT22;26989;45.524;10.938;2022-12-20T09:10:24;4.80;99.90
41256;DHT22;26989;45.524;10.938;2022-12-20T09:12:51;4.60;99.90
41256;DHT22;26989;45.524;10.938;2022-12-20T09:15:18;4.70;99.90
41256;DHT22;26989;45.524;10.938;2022-12-20T09:17:45;4.60;99.90
41256;DHT22;26989;45.524;10.938;2022-12-20T09:20:13;4.70;99.90
41256;DHT22;26989;45.524;10.938;2022-12-20T09:22:42;4.80;99.90
41256;DHT22;26989;45.524;10.938;2022-12-20T09:25:10;4.90;99.90
41256;DHT22;26989;45.524;10.938;2022-12-20T09:27:38;5.00;99.90
41256;DHT22;26989;45.524;10.938;2022-12-20T09:30:06;5.10;99.90
41256;DHT22;26989;45.524;10.938;2022-12-20T09:32:35;5.10;99.90
41256;DHT22;26989;45.524;10.938;2022-12-20T09:35:05;5.20;99.90
41256;DHT22;26989;45.524;10.938;2022-12-20T09:37:35;5.20;99.90
41256;DHT22;26989;45.524;10.938;2022-12-20T09:40:02;5.30;99.90
41256;DHT22;26989;45.524;10.938;2022-12-20T09:42:40;5.40;99.90
41256;DHT22;26989;45.524;10.938;2022-12-20T09:45:22;5.50;99.90
41256;DHT22;26989;45.524;10.938;2022-12-20T09:47:57;5.50;99.90
41256;DHT22;26989;45.524;10.938;2022-12-20T09:59:12;5.50;99.90
41256;DHT22;26989;45.524;10.938;2022-12-20T10:01:52;5.50;99.90
41256;DHT22;26989;45.524;10.938;2022-12-20T10:04:42;5.60;99.90
41256;DHT22;26989;45.524;10.938;2022-12-20T10:07:41;5.60;99.90
41256;DHT22;26989;45.524;10.938;2022-12-20T10:10:50;5.70;99.90
41256;DHT22;26989;45.524;10.938;2022-12-20T10:13:24;5.70;99.90
41256;DHT22;26989;45.524;10.938;2022-12-20T10:16:28;5.40;99.90
41256;DHT22;26989;45.524;10.938;2022-12-20T10:19:09;5.50;99.90
41256;DHT22;26989;45.524;10.938;2022-12-20T10:22:15;5.60;99.90
41256;DHT22;26989;45.524;10.938;2022-12-20T10:24:58;5.70;99.90
41256;DHT22;26989;45.524;10.938;2022-12-20T10:27:35;6.00;99.90
41256;DHT22;26989;45.524;10.938;2022-12-20T10:30:25;6.00;99.90
41256;DHT22;26989;45.524;10.938;2022-12-20T10:32:55;6.00;99.90
41256;DHT22;26989;45.524;10.938;2022-12-20T10:35:37;6.00;99.90
41256;DHT22;26989;45.524;10.938;2022-12-20T10:38:10;6.00;99.90
41256;DHT22;26989;45.524;10.938;2022-12-20T10:43:43;6.20;99.90
41256;DHT22;26989;45.524;10.938;2022-12-20T10:46:12;6.20;99.90
41256;DHT22;26989;45.524;10.938;2022-12-20T10:48:46;6.10;99.90
41256;DHT22;26989;45.524;10.938;2022-12-20T10:51:18;6.10;99.90
41256;DHT22;26989;45.524;10.938;2022-12-20T10:53:58;6.20;99.90
41256;DHT22;26989;45.524;10.938;2022-12-20T10:56:32;6.10;99.90
41256;DHT22;26989;45.524;10.938;2022-12-20T11:01:58;6.10;99.90
41256;DHT22;26989;45.524;10.938;2022-12-20T11:04:34;6.10;99.90
41256;DHT22;26989;45.524;10.938;2022-12-20T11:07:26;6.20;99.90
41256;DHT22;26989;45.524;10.938;2022-12-20T11:09:55;6.40;99.90
41256;DHT22;26989;45.524;10.938;2022-12-20T11:12:23;6.40;99.90
41256;DHT22;26989;45.524;10.938;2022-12-20T11:15:20;6.40;99.90
41256;DHT22;26989;45.524;10.938;2022-12-20T11:18:06;6.40;99.90
41256;DHT22;26989;45.524;10.938;2022-12-20T11:21:10;6.60;99.90
41256;DHT22;26989;45.524;10.938;2022-12-20T11:23:57;6.40;99.90
41256;DHT22;26989;45.524;10.938;2022-12-20T11:35:24;6.30;99.90
41256;DHT22;26989;45.524;10.938;2022-12-20T11:40:54;6.60;99.90
41256;DHT22;26989;45.524;10.938;2022-12-20T11:43:30;6.50;99.90
41256;DHT22;26989;45.524;10.938;2022-12-20T11:54:26;6.70;99.90
41256;DHT22;26989;45.524;10.938;2022-12-20T11:57:01;6.60;99.90
41256;DHT22;26989;45.524;10.938;2022-12-20T12:02:22;6.70;99.90
41256;DHT22;26989;45.524;10.938;2022-12-20T12:05:08;6.90;99.90
41256;DHT22;26989;45.524;10.938;2022-12-20T12:07:43;6.60;99.90
41256;DHT22;26989;45.524;10.938;2022-12-20T12:10:24;6.80;99.90
41256;DHT22;26989;45.524;10.938;2022-12-20T12:13:17;7.10;99.90
41256;DHT22;26989;45.524;10.938;2022-12-20T12:15:58;7.20;99.90
41256;DHT22;26989;45.524;10.938;2022-12-20T12:18:29;7.10;99.90
41256;DHT22;26989;45.524;10.938;2022-12-20T12:26:24;6.90;99.90
41256;DHT22;26989;45.524;10.938;2022-12-20T12:45:18;6.70;99.90
41256;DHT22;26989;45.524;10.938;2022-12-20T12:47:57;6.80;99.90
41256;DHT22;26989;45.524;10.938;2022-12-20T12:50:35;6.60;99.90
41256;DHT22;26989;45.524;10.938;2022-12-20T12:53:14;6.90;99.90
41256;DHT22;26989;45.524;10.938;2022-12-20T12:55:45;6.70;99.90
41256;DHT22;26989;45.524;10.938;2022-12-20T13:00:53;7.00;99.90
41256;DHT22;26989;45.524;10.938;2022-12-20T13:03:43;7.10;99.90
41256;DHT22;26989;45.524;10.938;2022-12-20T13:11:40;6.90;99.90
41256;DHT22;26989;45.524;10.938;2022-12-20T13:16:45;6.90;99.90
41256;DHT22;26989;45.524;10.938;2022-12-20T13:19:37;6.90;99.90
41256;DHT22;26989;45.524;10.938;2022-12-20T13:27:27;6.70;99.90
41256;DHT22;26989;45.524;10.938;2022-12-20T13:29:56;6.60;99.90
41256;DHT22;26989;45.524;10.938;2022-12-20T13:38:34;6.50;99.90
41256;DHT22;26989;45.524;10.938;2022-12-20T13:43:43;6.40;99.90
41256;DHT22;26989;45.524;10.938;2022-12-20T13:46:20;6.50;99.90
41256;DHT22;26989;45.524;10.938;2022-12-20T13:49:09;6.60;99.90
41256;DHT22;26989;45.524;10.938;2022-12-20T13:51:37;6.70;99.90
41256;DHT22;26989;45.524;10.938;2022-12-20T13:54:07;6.60;99.90
41256;DHT22;26989;45.524;10.938;2022-12-20T13:56:49;6.70;99.90
41256;DHT22;26989;45.524;10.938;2022-12-20T13:59:29;6.70;99.90
41256;DHT22;26989;45.524;10.938;2022-12-20T14:02:03;6.70;99.90
41256;DHT22;26989;45.524;10.938;2022-12-20T14:04:41;6.70;99.90
41256;DHT22;26989;45.524;10.938;2022-12-20T14:07:15;6.60;99.90
41256;DHT22;26989;45.524;10.938;2022-12-20T14:09:45;6.60;99.90
41256;DHT22;26989;45.524;10.938;2022-12-20T14:12:14;6.50;99.90
41256;DHT22;26989;45.524;10.938;2022-12-20T14:14:52;6.50;99.90
41256;DHT22;26989;45.524;10.938;2022-12-20T14:17:28;6.30;99.90
41256;DHT22;26989;45.524;10.938;2022-12-20T14:20:15;6.40;99.90
41256;DHT22;26989;45.524;10.938;2022-12-20T14:22:56;6.20;99.90
41256;DHT22;26989;45.524;10.938;2022-12-20T14:25:41;6.30;99.90
41256;DHT22;26989;45.524;10.938;2022-12-20T14:28:19;6.30;99.90
41256;DHT22;26989;45.524;10.938;2022-12-20T14:30:54;6.40;99.90
41256;DHT22;26989;45.524;10.938;2022-12-20T14:35:53;6.30;99.90
41256;DHT22;26989;45.524;10.938;2022-12-20T14:38:28;6.20;99.90
41256;DHT22;26989;45.524;10.938;2022-12-20T14:44:12;6.20;99.90
41256;DHT22;26989;45.524;10.938;2022-12-20T14:46:49;6.20;99.90
41256;DHT22;26989;45.524;10.938;2022-12-20T14:49:34;6.20;99.90
41256;DHT22;26989;45.524;10.938;2022-12-20T14:52:27;6.10;99.90
41256;DHT22;26989;45.524;10.938;2022-12-20T15:02:49;6.00;99.90
41256;DHT22;26989;45.524;10.938;2022-12-20T15:13:33;5.80;99.90
41256;DHT22;26989;45.524;10.938;2022-12-20T15:16:03;5.70;99.90
41256;DHT22;26989;45.524;10.938;2022-12-20T15:18:31;5.70;99.90
41256;DHT22;26989;45.524;10.938;2022-12-20T15:21:15;5.70;99.90
41256;DHT22;26989;45.524;10.938;2022-12-20T15:23:51;5.70;99.90
41256;DHT22;26989;45.524;10.938;2022-12-20T15:26:22;5.70;99.90
41256;DHT22;26989;45.524;10.938;2022-12-20T15:28:50;5.60;99.90
41256;DHT22;26989;45.524;10.938;2022-12-20T15:31:20;5.60;99.90
41256;DHT22;26989;45.524;10.938;2022-12-20T15:33:51;5.60;99.90
41256;DHT22;26989;45.524;10.938;2022-12-20T15:36:27;5.60;99.90
41256;DHT22;26989;45.524;10.938;2022-12-20T15:38:57;5.60;99.90
41256;DHT22;26989;45.524;10.938;2022-12-20T15:41:44;5.60;99.90
41256;DHT22;26989;45.524;10.938;2022-12-20T15:44:22;5.50;99.90
41256;DHT22;26989;45.524;10.938;2022-12-20T15:46:53;5.50;99.90
41256;DHT22;26989;45.524;10.938;2022-12-20T15:49:35;5.50;99.90
41256;DHT22;26989;45.524;10.938;2022-12-20T15:52:02;5.50;99.90
41256;DHT22;26989;45.524;10.938;2022-12-20T15:54:38;5.50;99.90
41256;DHT22;26989;45.524;10.938;2022-12-20T15:57:19;5.50;99.90
41256;DHT22;26989;45.524;10.938;2022-12-20T15:59:50;5.50;99.90
41256;DHT22;26989;45.524;10.938;2022-12-20T16:02:40;5.40;99.90
41256;DHT22;26989;45.524;10.938;2022-12-20T16:05:22;5.40;99.90
41256;DHT22;26989;45.524;10.938;2022-12-20T16:08:09;5.40;99.90
41256;DHT22;26989;45.524;10.938;2022-12-20T16:10:51;5.40;99.90
41256;DHT22;26989;45.524;10.938;2022-12-20T16:13:33;5.40;99.90
41256;DHT22;26989;45.524;10.938;2022-12-20T16:16:22;5.40;99.90
41256;DHT22;26989;45.524;10.938;2022-12-20T16:18:49;5.40;99.90
41256;DHT22;26989;45.524;10.938;2022-12-20T16:21:25;5.30;99.90
41256;DHT22;26989;45.524;10.938;2022-12-20T16:23:53;5.30;99.90
41256;DHT22;26989;45.524;10.938;2022-12-20T16:26:22;5.40;99.90
41256;DHT22;26989;45.524;10.938;2022-12-20T16:28:52;5.30;99.90
41256;DHT22;26989;45.524;10.938;2022-12-20T16:31:21;5.30;99.90
41256;DHT22;26989;45.524;10.938;2022-12-20T16:33:53;5.30;99.90
41256;DHT22;26989;45.524;10.938;2022-12-20T16:36:21;5.30;99.90
41256;DHT22;26989;45.524;10.938;2022-12-20T16:38:50;5.30;99.90
41256;DHT22;26989;45.524;10.938;2022-12-20T16:41:19;5.30;99.90
41256;DHT22;26989;45.524;10.938;2022-12-20T16:43:49;5.30;99.90
41256;DHT22;26989;45.524;10.938;2022-12-20T16:46:18;5.30;99.90
41256;DHT22;26989;45.524;10.938;2022-12-20T16:48:47;5.30;99.90
41256;DHT22;26989;45.524;10.938;2022-12-20T16:51:25;5.30;99.90
41256;DHT22;26989;45.524;10.938;2022-12-20T16:56:58;5.40;99.90
41256;DHT22;26989;45.524;10.938;2022-12-20T16:59:38;5.40;99.90
41256;DHT22;26989;45.524;10.938;2022-12-20T17:02:39;5.40;99.90
41256;DHT22;26989;45.524;10.938;2022-12-20T17:05:32;5.40;99.90
41256;DHT22;26989;45.524;10.938;2022-12-20T17:08:00;5.40;99.90
41256;DHT22;26989;45.524;10.938;2022-12-20T17:10:31;5.40;99.90
41256;DHT22;26989;45.524;10.938;2022-12-20T17:13:02;5.40;99.90
41256;DHT22;26989;45.524;10.938;2022-12-20T17:15:35;5.40;99.90
41256;DHT22;26989;45.524;10.938;2022-12-20T17:18:13;5.30;99.90
41256;DHT22;26989;45.524;10.938;2022-12-20T17:20:44;5.40;99.90
41256;DHT22;26989;45.524;10.938;2022-12-20T17:23:15;5.40;99.90
41256;DHT22;26989;45.524;10.938;2022-12-20T17:26:02;5.40;99.90
41256;DHT22;26989;45.524;10.938;2022-12-20T17:31:39;5.30;99.90
41256;DHT22;26989;45.524;10.938;2022-12-20T17:34:18;5.30;99.90
41256;DHT22;26989;45.524;10.938;2022-12-20T17:39:40;5.30;99.90
41256;DHT22;26989;45.524;10.938;2022-12-20T17:42:11;5.30;99.90
41256;DHT22;26989;45.524;10.938;2022-12-20T17:44:40;5.40;99.90
41256;DHT22;26989;45.524;10.938;2022-12-20T17:47:07;5.30;99.90
41256;DHT22;26989;45.524;10.938;2022-12-20T17:49:44;5.30;99.90
41256;DHT22;26989;45.524;10.938;2022-12-20T17:52:26;5.30;99.90
41256;DHT22;26989;45.524;10.938;2022-12-20T17:54:58;5.30;99.90
41256;DHT22;26989;45.524;10.938;2022-12-20T18:00:29;5.30;99.90
41256;DHT22;26989;45.524;10.938;2022-12-20T18:03:06;5.30;99.90
41256;DHT22;26989;45.524;10.938;2022-12-20T18:05:33;5.40;99.90
41256;DHT22;26989;45.524;10.938;2022-12-20T18:08:14;5.40;99.90
41256;DHT22;26989;45.524;10.938;2022-12-20T18:10:57;5.40;99.90
41256;DHT22;26989;45.524;10.938;2022-12-20T18:13:25;5.40;99.90
41256;DHT22;26989;45.524;10.938;2022-12-20T18:15:52;5.40;99.90